sensor_id;sensor_type;location;lat;lon;timestamp;P1;durP1;ratioP1;P2;durP2;ratioP2
6053;SDS011;3055;50.886;14.814;2023-04-26T00:01:55;4.13;;;3.23;;
6053;SDS011;3055;50.886;14.814;2023-04-26T00:04:23;6.23;;;2.90;;
6053;SDS011;3055;50.886;14.814;2023-04-26T00:06:51;6.37;;;3.20;;
6053;SDS011;3055;50.886;14.814;2023-04-26T00:09:18;5.87;;;3.30;;
6053;SDS011;3055;50.886;14.814;2023-04-26T00:11:45;5.60;;;2.97;;
6053;SDS011;3055;50.886;14.814;2023-04-26T00:14:12;5.03;;;3.50;;
6053;SDS011;3055;50.886;14.814;2023-04-26T00:16:39;7.33;;;3.23;;
6053;SDS011;3055;50.886;14.814;2023-04-26T00:19:06;5.97;;;3.53;;
6053;SDS011;3055;50.886;14.814;2023-04-26T00:21:34;3.50;;;2.87;;
6053;SDS011;3055;50.886;14.814;2023-04-26T00:24:04;5.80;;;3.20;;
6053;SDS011;3055;50.886;14.814;2023-04-26T00:26:32;4.60;;;3.20;;
6053;SDS011;3055;50.886;14.814;2023-04-26T00:28:59;6.90;;;3.30;;
6053;SDS011;3055;50.886;14.814;2023-04-26T00:31:27;3.73;;;3.03;;
6053;SDS011;3055;50.886;14.814;2023-04-26T00:33:54;4.97;;;3.17;;
6053;SDS011;3055;50.886;14.814;2023-04-26T00:36:21;6.83;;;3.40;;
6053;SDS011;3055;50.886;14.814;2023-04-26T00:38:48;2.80;;;2.50;;
6053;SDS011;3055;50.886;14.814;2023-04-26T00:41:16;5.63;;;3.23;;
6053;SDS011;3055;50.886;14.814;2023-04-26T00:43:43;5.33;;;3.03;;
6053;SDS011;3055;50.886;14.814;2023-04-26T00:46:10;3.90;;;2.73;;
6053;SDS011;3055;50.886;14.814;2023-04-26T00:48:38;4.83;;;3.10;;
6053;SDS011;3055;50.886;14.814;2023-04-26T00:51:05;3.67;;;2.57;;
6053;SDS011;3055;50.886;14.814;2023-04-26T00:53:32;4.97;;;3.53;;
6053;SDS011;3055;50.886;14.814;2023-04-26T00:55:59;3.70;;;2.90;;
6053;SDS011;3055;50.886;14.814;2023-04-26T00:58:29;4.37;;;2.80;;
6053;SDS011;3055;50.886;14.814;2023-04-26T01:00:56;4.17;;;2.90;;
6053;SDS011;3055;50.886;14.814;2023-04-26T01:03:23;3.87;;;2.67;;
6053;SDS011;3055;50.886;14.814;2023-04-26T01:05:50;5.23;;;3.00;;
6053;SDS011;3055;50.886;14.814;2023-04-26T01:08:18;4.73;;;2.90;;
6053;SDS011;3055;50.886;14.814;2023-04-26T01:10:45;6.00;;;3.20;;
6053;SDS011;3055;50.886;14.814;2023-04-26T01:13:13;4.90;;;2.60;;
6053;SDS011;3055;50.886;14.814;2023-04-26T01:15:43;3.00;;;2.80;;
6053;SDS011;3055;50.886;14.814;2023-04-26T01:18:11;3.40;;;2.57;;
6053;SDS011;3055;50.886;14.814;2023-04-26T01:20:39;4.07;;;3.00;;
6053;SDS011;3055;50.886;14.814;2023-04-26T01:23:08;4.00;;;3.30;;
6053;SDS011;3055;50.886;14.814;2023-04-26T01:25:35;5.10;;;2.90;;
6053;SDS011;3055;50.886;14.814;2023-04-26T01:28:02;3.40;;;2.90;;
6053;SDS011;3055;50.886;14.814;2023-04-26T01:30:30;5.47;;;3.17;;
6053;SDS011;3055;50.886;14.814;2023-04-26T01:32:57;5.27;;;3.03;;
6053;SDS011;3055;50.886;14.814;2023-04-26T01:35:24;4.57;;;3.40;;
6053;SDS011;3055;50.886;14.814;2023-04-26T01:37:51;5.40;;;2.73;;
6053;SDS011;3055;50.886;14.814;2023-04-26T01:40:19;6.40;;;3.37;;
6053;SDS011;3055;50.886;14.814;2023-04-26T01:42:46;5.43;;;2.97;;
6053;SDS011;3055;50.886;14.814;2023-04-26T01:45:13;4.93;;;3.10;;
6053;SDS011;3055;50.886;14.814;2023-04-26T01:47:41;5.00;;;3.00;;
6053;SDS011;3055;50.886;14.814;2023-04-26T01:50:08;6.37;;;3.07;;
6053;SDS011;3055;50.886;14.814;2023-04-26T01:52:36;5.60;;;3.13;;
6053;SDS011;3055;50.886;14.814;2023-04-26T01:55:03;3.70;;;3.07;;
6053;SDS011;3055;50.886;14.814;2023-04-26T01:57:32;4.83;;;3.10;;
6053;SDS011;3055;50.886;14.814;2023-04-26T01:59:59;3.30;;;3.00;;
6053;SDS011;3055;50.886;14.814;2023-04-26T02:02:27;5.00;;;2.73;;
6053;SDS011;3055;50.886;14.814;2023-04-26T02:04:54;5.13;;;2.87;;
6053;SDS011;3055;50.886;14.814;2023-04-26T02:07:21;4.33;;;2.93;;
6053;SDS011;3055;50.886;14.814;2023-04-26T02:09:48;5.13;;;2.90;;
6053;SDS011;3055;50.886;14.814;2023-04-26T02:12:15;3.70;;;2.83;;
6053;SDS011;3055;50.886;14.814;2023-04-26T02:14:44;5.73;;;2.83;;
6053;SDS011;3055;50.886;14.814;2023-04-26T02:17:11;9.53;;;2.90;;
6053;SDS011;3055;50.886;14.814;2023-04-26T02:19:38;3.83;;;2.67;;
6053;SDS011;3055;50.886;14.814;2023-04-26T02:22:05;6.00;;;2.83;;
6053;SDS011;3055;50.886;14.814;2023-04-26T02:24:33;3.37;;;2.90;;
6053;SDS011;3055;50.886;14.814;2023-04-26T02:27:00;4.87;;;2.27;;
6053;SDS011;3055;50.886;14.814;2023-04-26T02:29:28;4.23;;;2.60;;
6053;SDS011;3055;50.886;14.814;2023-04-26T02:31:57;6.00;;;2.70;;
6053;SDS011;3055;50.886;14.814;2023-04-26T02:34:24;4.63;;;2.37;;
6053;SDS011;3055;50.886;14.814;2023-04-26T02:36:51;3.20;;;2.77;;
6053;SDS011;3055;50.886;14.814;2023-04-26T02:39:18;6.57;;;2.70;;
6053;SDS011;3055;50.886;14.814;2023-04-26T02:41:45;4.50;;;2.47;;
6053;SDS011;3055;50.886;14.814;2023-04-26T02:44:12;5.73;;;2.43;;
6053;SDS011;3055;50.886;14.814;2023-04-26T02:46:39;4.97;;;2.83;;
6053;SDS011;3055;50.886;14.814;2023-04-26T02:49:08;7.77;;;2.40;;
6053;SDS011;3055;50.886;14.814;2023-04-26T02:51:35;3.90;;;2.40;;
6053;SDS011;3055;50.886;14.814;2023-04-26T02:54:02;5.60;;;2.77;;
6053;SDS011;3055;50.886;14.814;2023-04-26T02:56:29;3.33;;;2.80;;
6053;SDS011;3055;50.886;14.814;2023-04-26T02:58:56;5.33;;;2.77;;
6053;SDS011;3055;50.886;14.814;2023-04-26T03:01:23;4.20;;;2.73;;
6053;SDS011;3055;50.886;14.814;2023-04-26T03:03:50;8.00;;;2.97;;
6053;SDS011;3055;50.886;14.814;2023-04-26T03:06:19;2.73;;;2.53;;
6053;SDS011;3055;50.886;14.814;2023-04-26T03:08:46;3.20;;;2.80;;
6053;SDS011;3055;50.886;14.814;2023-04-26T03:11:13;5.17;;;3.33;;
6053;SDS011;3055;50.886;14.814;2023-04-26T03:13:40;4.20;;;2.93;;
6053;SDS011;3055;50.886;14.814;2023-04-26T03:16:07;9.47;;;3.07;;
6053;SDS011;3055;50.886;14.814;2023-04-26T03:18:34;3.67;;;3.13;;
6053;SDS011;3055;50.886;14.814;2023-04-26T03:21:01;3.97;;;3.30;;
6053;SDS011;3055;50.886;14.814;2023-04-26T03:23:30;5.70;;;3.87;;
6053;SDS011;3055;50.886;14.814;2023-04-26T03:25:57;3.93;;;3.40;;
6053;SDS011;3055;50.886;14.814;2023-04-26T03:28:24;4.43;;;2.97;;
6053;SDS011;3055;50.886;14.814;2023-04-26T03:30:51;5.57;;;3.60;;
6053;SDS011;3055;50.886;14.814;2023-04-26T03:33:18;6.07;;;3.20;;
6053;SDS011;3055;50.886;14.814;2023-04-26T03:35:45;9.83;;;3.60;;
6053;SDS011;3055;50.886;14.814;2023-04-26T03:38:12;8.17;;;3.87;;
6053;SDS011;3055;50.886;14.814;2023-04-26T03:40:41;5.20;;;3.57;;
6053;SDS011;3055;50.886;14.814;2023-04-26T03:43:08;4.77;;;3.60;;
6053;SDS011;3055;50.886;14.814;2023-04-26T03:45:35;5.67;;;4.47;;
6053;SDS011;3055;50.886;14.814;2023-04-26T03:48:02;5.10;;;3.80;;
6053;SDS011;3055;50.886;14.814;2023-04-26T03:50:29;6.07;;;3.90;;
6053;SDS011;3055;50.886;14.814;2023-04-26T03:52:57;4.73;;;3.93;;
6053;SDS011;3055;50.886;14.814;2023-04-26T03:55:23;7.63;;;4.20;;
6053;SDS011;3055;50.886;14.814;2023-04-26T03:57:52;7.20;;;5.10;;
6053;SDS011;3055;50.886;14.814;2023-04-26T04:00:19;9.93;;;4.33;;
6053;SDS011;3055;50.886;14.814;2023-04-26T04:02:46;5.77;;;4.33;;
6053;SDS011;3055;50.886;14.814;2023-04-26T04:05:13;6.07;;;4.53;;
6053;SDS011;3055;50.886;14.814;2023-04-26T04:07:40;6.73;;;4.37;;
6053;SDS011;3055;50.886;14.814;2023-04-26T04:10:08;5.43;;;4.40;;
6053;SDS011;3055;50.886;14.814;2023-04-26T04:12:35;6.90;;;4.83;;
6053;SDS011;3055;50.886;14.814;2023-04-26T04:15:05;7.07;;;5.37;;
6053;SDS011;3055;50.886;14.814;2023-04-26T04:17:32;6.50;;;4.50;;
6053;SDS011;3055;50.886;14.814;2023-04-26T04:20:00;10.27;;;4.90;;
6053;SDS011;3055;50.886;14.814;2023-04-26T04:22:29;5.47;;;4.97;;
6053;SDS011;3055;50.886;14.814;2023-04-26T04:24:56;5.50;;;4.50;;
6053;SDS011;3055;50.886;14.814;2023-04-26T04:27:24;6.60;;;4.87;;
6053;SDS011;3055;50.886;14.814;2023-04-26T04:29:51;6.93;;;4.43;;
6053;SDS011;3055;50.886;14.814;2023-04-26T04:32:20;7.40;;;4.67;;
6053;SDS011;3055;50.886;14.814;2023-04-26T04:34:47;6.47;;;4.63;;
6053;SDS011;3055;50.886;14.814;2023-04-26T04:37:15;5.83;;;4.17;;
6053;SDS011;3055;50.886;14.814;2023-04-26T04:39:43;6.60;;;4.47;;
6053;SDS011;3055;50.886;14.814;2023-04-26T04:42:10;5.20;;;4.47;;
6053;SDS011;3055;50.886;14.814;2023-04-26T04:44:37;8.60;;;4.57;;
6053;SDS011;3055;50.886;14.814;2023-04-26T04:47:05;6.83;;;5.07;;
6053;SDS011;3055;50.886;14.814;2023-04-26T04:49:34;8.13;;;4.87;;
6053;SDS011;3055;50.886;14.814;2023-04-26T04:52:01;8.17;;;4.80;;
6053;SDS011;3055;50.886;14.814;2023-04-26T04:54:29;8.20;;;4.93;;
6053;SDS011;3055;50.886;14.814;2023-04-26T04:56:56;9.97;;;5.50;;
6053;SDS011;3055;50.886;14.814;2023-04-26T04:59:23;10.00;;;5.00;;
6053;SDS011;3055;50.886;14.814;2023-04-26T05:01:50;8.07;;;4.50;;
6053;SDS011;3055;50.886;14.814;2023-04-26T05:04:17;7.23;;;4.97;;
6053;SDS011;3055;50.886;14.814;2023-04-26T05:06:45;5.20;;;4.10;;
6053;SDS011;3055;50.886;14.814;2023-04-26T05:09:12;7.53;;;4.37;;
6053;SDS011;3055;50.886;14.814;2023-04-26T05:11:39;6.70;;;4.30;;
6053;SDS011;3055;50.886;14.814;2023-04-26T05:14:06;5.37;;;3.97;;
6053;SDS011;3055;50.886;14.814;2023-04-26T05:16:33;11.23;;;4.00;;
6053;SDS011;3055;50.886;14.814;2023-04-26T05:19:02;5.67;;;4.37;;
6053;SDS011;3055;50.886;14.814;2023-04-26T05:21:29;8.47;;;3.90;;
6053;SDS011;3055;50.886;14.814;2023-04-26T05:23:58;6.03;;;3.70;;
6053;SDS011;3055;50.886;14.814;2023-04-26T05:26:26;5.73;;;3.23;;
6053;SDS011;3055;50.886;14.814;2023-04-26T05:28:53;8.17;;;3.93;;
6053;SDS011;3055;50.886;14.814;2023-04-26T05:31:20;5.27;;;3.50;;
6053;SDS011;3055;50.886;14.814;2023-04-26T05:33:47;6.00;;;3.23;;
6053;SDS011;3055;50.886;14.814;2023-04-26T05:36:14;5.97;;;3.30;;
6053;SDS011;3055;50.886;14.814;2023-04-26T05:38:41;7.37;;;3.00;;
6053;SDS011;3055;50.886;14.814;2023-04-26T05:41:09;8.10;;;3.90;;
6053;SDS011;3055;50.886;14.814;2023-04-26T05:43:36;7.27;;;4.10;;
6053;SDS011;3055;50.886;14.814;2023-04-26T05:46:04;9.60;;;3.27;;
6053;SDS011;3055;50.886;14.814;2023-04-26T05:48:31;9.17;;;3.67;;
6053;SDS011;3055;50.886;14.814;2023-04-26T05:50:58;9.27;;;3.10;;
6053;SDS011;3055;50.886;14.814;2023-04-26T05:53:27;8.63;;;3.20;;
6053;SDS011;3055;50.886;14.814;2023-04-26T05:55:54;6.87;;;3.67;;
6053;SDS011;3055;50.886;14.814;2023-04-26T05:58:22;5.47;;;3.17;;
6053;SDS011;3055;50.886;14.814;2023-04-26T06:00:49;5.53;;;3.53;;
6053;SDS011;3055;50.886;14.814;2023-04-26T06:03:16;10.73;;;3.40;;
6053;SDS011;3055;50.886;14.814;2023-04-26T06:05:43;7.40;;;2.97;;
6053;SDS011;3055;50.886;14.814;2023-04-26T06:08:10;5.13;;;3.07;;
6053;SDS011;3055;50.886;14.814;2023-04-26T06:10:38;6.10;;;3.03;;
6053;SDS011;3055;50.886;14.814;2023-04-26T06:13:05;6.37;;;3.50;;
6053;SDS011;3055;50.886;14.814;2023-04-26T06:15:33;4.83;;;3.07;;
6053;SDS011;3055;50.886;14.814;2023-04-26T06:18:00;5.53;;;2.80;;
6053;SDS011;3055;50.886;14.814;2023-04-26T06:20:27;11.07;;;3.57;;
6053;SDS011;3055;50.886;14.814;2023-04-26T06:22:54;5.97;;;2.67;;
6053;SDS011;3055;50.886;14.814;2023-04-26T06:25:24;8.50;;;3.00;;
6053;SDS011;3055;50.886;14.814;2023-04-26T06:27:51;6.07;;;2.47;;
6053;SDS011;3055;50.886;14.814;2023-04-26T06:30:18;9.63;;;2.83;;
6053;SDS011;3055;50.886;14.814;2023-04-26T06:32:46;8.13;;;2.50;;
6053;SDS011;3055;50.886;14.814;2023-04-26T06:35:14;8.83;;;3.10;;
6053;SDS011;3055;50.886;14.814;2023-04-26T06:37:41;7.30;;;2.77;;
6053;SDS011;3055;50.886;14.814;2023-04-26T06:40:09;8.50;;;2.50;;
6053;SDS011;3055;50.886;14.814;2023-04-26T06:42:38;8.53;;;2.50;;
6053;SDS011;3055;50.886;14.814;2023-04-26T06:45:05;9.80;;;2.67;;
6053;SDS011;3055;50.886;14.814;2023-04-26T06:47:33;6.97;;;2.63;;
6053;SDS011;3055;50.886;14.814;2023-04-26T06:50:02;8.90;;;2.70;;
6053;SDS011;3055;50.886;14.814;2023-04-26T06:52:29;8.90;;;2.30;;
6053;SDS011;3055;50.886;14.814;2023-04-26T06:54:59;10.17;;;2.97;;
6053;SDS011;3055;50.886;14.814;2023-04-26T06:57:27;6.23;;;2.57;;
6053;SDS011;3055;50.886;14.814;2023-04-26T06:59:54;6.30;;;2.23;;
6053;SDS011;3055;50.886;14.814;2023-04-26T07:02:22;4.90;;;2.67;;
6053;SDS011;3055;50.886;14.814;2023-04-26T07:04:49;5.67;;;2.23;;
6053;SDS011;3055;50.886;14.814;2023-04-26T07:07:17;8.93;;;2.73;;
6053;SDS011;3055;50.886;14.814;2023-04-26T07:09:44;9.70;;;3.00;;
6053;SDS011;3055;50.886;14.814;2023-04-26T07:12:11;7.53;;;2.17;;
6053;SDS011;3055;50.886;14.814;2023-04-26T07:14:39;7.83;;;2.37;;
6053;SDS011;3055;50.886;14.814;2023-04-26T07:17:07;6.13;;;1.97;;
6053;SDS011;3055;50.886;14.814;2023-04-26T07:19:34;4.53;;;2.20;;
6053;SDS011;3055;50.886;14.814;2023-04-26T07:22:01;6.33;;;2.30;;
6053;SDS011;3055;50.886;14.814;2023-04-26T07:24:30;5.63;;;3.10;;
6053;SDS011;3055;50.886;14.814;2023-04-26T07:26:57;4.30;;;2.80;;
6053;SDS011;3055;50.886;14.814;2023-04-26T07:29:24;4.93;;;2.83;;
6053;SDS011;3055;50.886;14.814;2023-04-26T07:31:51;7.77;;;2.83;;
6053;SDS011;3055;50.886;14.814;2023-04-26T07:34:18;6.27;;;2.47;;
6053;SDS011;3055;50.886;14.814;2023-04-26T07:36:45;5.03;;;2.20;;
6053;SDS011;3055;50.886;14.814;2023-04-26T07:39:12;5.67;;;2.30;;
6053;SDS011;3055;50.886;14.814;2023-04-26T07:41:41;5.87;;;2.67;;
6053;SDS011;3055;50.886;14.814;2023-04-26T07:44:08;3.70;;;2.37;;
6053;SDS011;3055;50.886;14.814;2023-04-26T07:46:36;6.23;;;2.60;;
6053;SDS011;3055;50.886;14.814;2023-04-26T07:49:03;6.47;;;2.40;;
6053;SDS011;3055;50.886;14.814;2023-04-26T07:51:30;5.57;;;2.00;;
6053;SDS011;3055;50.886;14.814;2023-04-26T07:53:57;6.67;;;2.67;;
6053;SDS011;3055;50.886;14.814;2023-04-26T07:56:25;7.63;;;2.53;;
6053;SDS011;3055;50.886;14.814;2023-04-26T07:58:53;8.13;;;2.80;;
6053;SDS011;3055;50.886;14.814;2023-04-26T08:01:20;7.53;;;2.30;;
6053;SDS011;3055;50.886;14.814;2023-04-26T08:03:47;5.37;;;2.17;;
6053;SDS011;3055;50.886;14.814;2023-04-26T08:06:14;8.63;;;2.93;;
6053;SDS011;3055;50.886;14.814;2023-04-26T08:08:41;6.10;;;2.07;;
6053;SDS011;3055;50.886;14.814;2023-04-26T08:11:13;5.80;;;2.10;;
6053;SDS011;3055;50.886;14.814;2023-04-26T08:13:40;4.63;;;2.30;;
6053;SDS011;3055;50.886;14.814;2023-04-26T08:16:09;7.27;;;2.63;;
6053;SDS011;3055;50.886;14.814;2023-04-26T08:18:36;4.33;;;2.30;;
6053;SDS011;3055;50.886;14.814;2023-04-26T08:21:03;4.90;;;2.10;;
6053;SDS011;3055;50.886;14.814;2023-04-26T08:23:34;7.10;;;2.80;;
6053;SDS011;3055;50.886;14.814;2023-04-26T08:26:01;4.70;;;2.07;;
6053;SDS011;3055;50.886;14.814;2023-04-26T08:28:28;4.50;;;2.23;;
6053;SDS011;3055;50.886;14.814;2023-04-26T08:30:55;3.90;;;2.03;;
6053;SDS011;3055;50.886;14.814;2023-04-26T08:33:24;5.07;;;2.00;;
6053;SDS011;3055;50.886;14.814;2023-04-26T08:35:51;5.73;;;2.83;;
6053;SDS011;3055;50.886;14.814;2023-04-26T08:38:18;4.87;;;2.23;;
6053;SDS011;3055;50.886;14.814;2023-04-26T08:40:46;8.67;;;2.47;;
6053;SDS011;3055;50.886;14.814;2023-04-26T08:43:14;6.33;;;2.37;;
6053;SDS011;3055;50.886;14.814;2023-04-26T08:45:42;6.67;;;1.77;;
6053;SDS011;3055;50.886;14.814;2023-04-26T08:48:11;5.07;;;2.00;;
6053;SDS011;3055;50.886;14.814;2023-04-26T08:50:41;3.33;;;2.17;;
6053;SDS011;3055;50.886;14.814;2023-04-26T08:53:10;6.00;;;2.80;;
6053;SDS011;3055;50.886;14.814;2023-04-26T08:55:41;10.33;;;3.13;;
6053;SDS011;3055;50.886;14.814;2023-04-26T08:58:13;8.67;;;2.90;;
6053;SDS011;3055;50.886;14.814;2023-04-26T09:00:41;3.73;;;2.50;;
6053;SDS011;3055;50.886;14.814;2023-04-26T09:03:09;3.77;;;2.47;;
6053;SDS011;3055;50.886;14.814;2023-04-26T09:05:38;4.37;;;1.87;;
6053;SDS011;3055;50.886;14.814;2023-04-26T09:08:09;6.17;;;2.47;;
6053;SDS011;3055;50.886;14.814;2023-04-26T09:10:41;5.03;;;2.17;;
6053;SDS011;3055;50.886;14.814;2023-04-26T09:13:08;8.07;;;2.30;;
6053;SDS011;3055;50.886;14.814;2023-04-26T09:15:36;8.60;;;3.27;;
6053;SDS011;3055;50.886;14.814;2023-04-26T09:18:16;6.00;;;2.40;;
6053;SDS011;3055;50.886;14.814;2023-04-26T09:20:44;5.63;;;2.30;;
6053;SDS011;3055;50.886;14.814;2023-04-26T09:23:27;5.67;;;2.07;;
6053;SDS011;3055;50.886;14.814;2023-04-26T09:25:54;3.20;;;2.27;;
6053;SDS011;3055;50.886;14.814;2023-04-26T09:28:22;3.93;;;2.00;;
6053;SDS011;3055;50.886;14.814;2023-04-26T09:30:50;6.53;;;2.00;;
6053;SDS011;3055;50.886;14.814;2023-04-26T09:33:17;6.20;;;3.10;;
6053;SDS011;3055;50.886;14.814;2023-04-26T09:35:44;3.83;;;2.47;;
6053;SDS011;3055;50.886;14.814;2023-04-26T09:38:12;7.33;;;2.60;;
6053;SDS011;3055;50.886;14.814;2023-04-26T09:40:41;6.63;;;2.30;;
6053;SDS011;3055;50.886;14.814;2023-04-26T09:43:10;5.33;;;2.60;;
6053;SDS011;3055;50.886;14.814;2023-04-26T09:45:45;5.80;;;2.60;;
6053;SDS011;3055;50.886;14.814;2023-04-26T09:48:15;5.03;;;1.80;;
6053;SDS011;3055;50.886;14.814;2023-04-26T09:50:45;5.87;;;2.13;;
6053;SDS011;3055;50.886;14.814;2023-04-26T09:53:23;5.43;;;2.10;;
6053;SDS011;3055;50.886;14.814;2023-04-26T09:55:53;4.63;;;2.40;;
6053;SDS011;3055;50.886;14.814;2023-04-26T09:58:20;2.23;;;2.10;;
6053;SDS011;3055;50.886;14.814;2023-04-26T10:00:49;4.07;;;2.43;;
6053;SDS011;3055;50.886;14.814;2023-04-26T10:03:17;5.63;;;2.10;;
6053;SDS011;3055;50.886;14.814;2023-04-26T10:05:45;2.10;;;1.90;;
6053;SDS011;3055;50.886;14.814;2023-04-26T10:08:13;3.17;;;2.10;;
6053;SDS011;3055;50.886;14.814;2023-04-26T10:10:43;6.20;;;2.13;;
6053;SDS011;3055;50.886;14.814;2023-04-26T10:13:12;5.87;;;2.27;;
6053;SDS011;3055;50.886;14.814;2023-04-26T10:15:41;4.50;;;1.80;;
6053;SDS011;3055;50.886;14.814;2023-04-26T10:18:08;5.17;;;3.33;;
6053;SDS011;3055;50.886;14.814;2023-04-26T10:20:37;3.57;;;2.10;;
6053;SDS011;3055;50.886;14.814;2023-04-26T10:23:08;4.40;;;2.00;;
6053;SDS011;3055;50.886;14.814;2023-04-26T10:25:44;2.17;;;1.50;;
6053;SDS011;3055;50.886;14.814;2023-04-26T10:28:12;2.53;;;1.80;;
6053;SDS011;3055;50.886;14.814;2023-04-26T10:30:52;5.77;;;2.07;;
6053;SDS011;3055;50.886;14.814;2023-04-26T10:33:20;3.03;;;2.03;;
6053;SDS011;3055;50.886;14.814;2023-04-26T10:38:37;4.60;;;1.83;;
6053;SDS011;3055;50.886;14.814;2023-04-26T10:47:19;4.80;;;3.30;;
6053;SDS011;3055;50.886;14.814;2023-04-26T10:49:48;6.30;;;2.50;;
6053;SDS011;3055;50.886;14.814;2023-04-26T10:52:16;6.67;;;2.43;;
6053;SDS011;3055;50.886;14.814;2023-04-26T10:54:47;4.27;;;2.27;;
6053;SDS011;3055;50.886;14.814;2023-04-26T10:57:16;4.60;;;2.00;;
6053;SDS011;3055;50.886;14.814;2023-04-26T11:02:54;7.97;;;2.33;;
6053;SDS011;3055;50.886;14.814;2023-04-26T11:05:47;3.60;;;2.23;;
6053;SDS011;3055;50.886;14.814;2023-04-26T11:08:18;3.77;;;2.23;;
6053;SDS011;3055;50.886;14.814;2023-04-26T11:10:49;4.77;;;2.20;;
6053;SDS011;3055;50.886;14.814;2023-04-26T11:13:18;5.87;;;2.90;;
6053;SDS011;3055;50.886;14.814;2023-04-26T11:15:47;3.63;;;2.13;;
6053;SDS011;3055;50.886;14.814;2023-04-26T11:18:18;4.60;;;2.60;;
6053;SDS011;3055;50.886;14.814;2023-04-26T11:20:46;5.93;;;2.57;;
6053;SDS011;3055;50.886;14.814;2023-04-26T11:23:13;7.50;;;2.33;;
6053;SDS011;3055;50.886;14.814;2023-04-26T11:25:40;4.00;;;2.50;;
6053;SDS011;3055;50.886;14.814;2023-04-26T11:28:08;3.43;;;2.30;;
6053;SDS011;3055;50.886;14.814;2023-04-26T11:30:35;8.20;;;2.53;;
6053;SDS011;3055;50.886;14.814;2023-04-26T11:33:03;2.20;;;1.80;;
6053;SDS011;3055;50.886;14.814;2023-04-26T11:35:32;4.40;;;2.17;;
6053;SDS011;3055;50.886;14.814;2023-04-26T11:38:02;6.10;;;2.40;;
6053;SDS011;3055;50.886;14.814;2023-04-26T11:40:30;3.47;;;2.23;;
6053;SDS011;3055;50.886;14.814;2023-04-26T11:42:58;7.13;;;2.60;;
6053;SDS011;3055;50.886;14.814;2023-04-26T11:45:27;2.60;;;1.90;;
6053;SDS011;3055;50.886;14.814;2023-04-26T11:47:54;3.23;;;1.80;;
6053;SDS011;3055;50.886;14.814;2023-04-26T11:50:23;5.97;;;2.20;;
6053;SDS011;3055;50.886;14.814;2023-04-26T11:52:52;5.27;;;2.00;;
6053;SDS011;3055;50.886;14.814;2023-04-26T11:55:22;5.90;;;2.60;;
6053;SDS011;3055;50.886;14.814;2023-04-26T11:57:52;3.73;;;2.10;;
6053;SDS011;3055;50.886;14.814;2023-04-26T12:00:20;4.13;;;2.27;;
6053;SDS011;3055;50.886;14.814;2023-04-26T12:02:48;2.97;;;2.00;;
6053;SDS011;3055;50.886;14.814;2023-04-26T12:05:19;5.37;;;2.37;;
6053;SDS011;3055;50.886;14.814;2023-04-26T12:07:52;3.83;;;2.50;;
6053;SDS011;3055;50.886;14.814;2023-04-26T12:10:23;4.47;;;2.07;;
6053;SDS011;3055;50.886;14.814;2023-04-26T12:12:52;4.80;;;2.73;;
6053;SDS011;3055;50.886;14.814;2023-04-26T12:15:24;2.87;;;2.30;;
6053;SDS011;3055;50.886;14.814;2023-04-26T12:17:54;4.23;;;2.50;;
6053;SDS011;3055;50.886;14.814;2023-04-26T12:20:26;4.33;;;2.60;;
6053;SDS011;3055;50.886;14.814;2023-04-26T12:23:02;2.63;;;2.17;;
6053;SDS011;3055;50.886;14.814;2023-04-26T12:25:31;3.87;;;2.10;;
6053;SDS011;3055;50.886;14.814;2023-04-26T12:27:58;4.30;;;2.20;;
6053;SDS011;3055;50.886;14.814;2023-04-26T12:30:27;5.87;;;2.87;;
6053;SDS011;3055;50.886;14.814;2023-04-26T12:32:55;3.77;;;2.10;;
6053;SDS011;3055;50.886;14.814;2023-04-26T12:35:23;5.53;;;2.53;;
6053;SDS011;3055;50.886;14.814;2023-04-26T12:37:51;4.30;;;2.17;;
6053;SDS011;3055;50.886;14.814;2023-04-26T12:40:22;5.40;;;2.20;;
6053;SDS011;3055;50.886;14.814;2023-04-26T12:42:49;5.53;;;2.20;;
6053;SDS011;3055;50.886;14.814;2023-04-26T12:45:17;3.97;;;2.20;;
6053;SDS011;3055;50.886;14.814;2023-04-26T12:47:44;1.97;;;1.87;;
6053;SDS011;3055;50.886;14.814;2023-04-26T12:50:12;2.93;;;2.27;;
6053;SDS011;3055;50.886;14.814;2023-04-26T12:52:39;4.03;;;2.23;;
6053;SDS011;3055;50.886;14.814;2023-04-26T12:55:08;5.93;;;2.60;;
6053;SDS011;3055;50.886;14.814;2023-04-26T12:57:38;3.30;;;2.27;;
6053;SDS011;3055;50.886;14.814;2023-04-26T13:00:07;4.77;;;2.23;;
6053;SDS011;3055;50.886;14.814;2023-04-26T13:02:36;4.43;;;2.40;;
6053;SDS011;3055;50.886;14.814;2023-04-26T13:05:04;4.63;;;2.17;;
6053;SDS011;3055;50.886;14.814;2023-04-26T13:07:32;4.70;;;2.70;;
6053;SDS011;3055;50.886;14.814;2023-04-26T13:10:01;3.53;;;2.10;;
6053;SDS011;3055;50.886;14.814;2023-04-26T13:12:29;4.47;;;2.07;;
6053;SDS011;3055;50.886;14.814;2023-04-26T13:14:58;7.93;;;2.53;;
6053;SDS011;3055;50.886;14.814;2023-04-26T13:17:25;3.40;;;2.17;;
6053;SDS011;3055;50.886;14.814;2023-04-26T13:19:52;5.63;;;2.13;;
6053;SDS011;3055;50.886;14.814;2023-04-26T13:22:19;3.20;;;2.10;;
6053;SDS011;3055;50.886;14.814;2023-04-26T13:24:46;6.60;;;2.30;;
6053;SDS011;3055;50.886;14.814;2023-04-26T13:27:13;3.77;;;2.20;;
6053;SDS011;3055;50.886;14.814;2023-04-26T13:29:40;4.87;;;2.37;;
6053;SDS011;3055;50.886;14.814;2023-04-26T13:32:09;4.57;;;2.10;;
6053;SDS011;3055;50.886;14.814;2023-04-26T13:34:36;3.57;;;2.20;;
6053;SDS011;3055;50.886;14.814;2023-04-26T13:37:03;3.50;;;2.20;;
6053;SDS011;3055;50.886;14.814;2023-04-26T13:39:30;4.33;;;2.30;;
6053;SDS011;3055;50.886;14.814;2023-04-26T13:41:58;3.10;;;2.37;;
6053;SDS011;3055;50.886;14.814;2023-04-26T13:44:26;8.07;;;2.90;;
6053;SDS011;3055;50.886;14.814;2023-04-26T13:46:53;4.40;;;2.47;;
6053;SDS011;3055;50.886;14.814;2023-04-26T13:49:23;3.90;;;2.40;;
6053;SDS011;3055;50.886;14.814;2023-04-26T13:51:51;4.47;;;2.17;;
6053;SDS011;3055;50.886;14.814;2023-04-26T13:54:19;3.23;;;2.27;;
6053;SDS011;3055;50.886;14.814;2023-04-26T13:56:47;5.43;;;2.60;;
6053;SDS011;3055;50.886;14.814;2023-04-26T13:59:14;4.63;;;2.53;;
6053;SDS011;3055;50.886;14.814;2023-04-26T14:01:41;4.07;;;2.23;;
6053;SDS011;3055;50.886;14.814;2023-04-26T14:04:09;3.63;;;2.80;;
6053;SDS011;3055;50.886;14.814;2023-04-26T14:06:37;3.90;;;2.47;;
6053;SDS011;3055;50.886;14.814;2023-04-26T14:09:04;4.23;;;2.50;;
6053;SDS011;3055;50.886;14.814;2023-04-26T14:11:32;5.90;;;2.63;;
6053;SDS011;3055;50.886;14.814;2023-04-26T14:13:59;4.30;;;2.43;;
6053;SDS011;3055;50.886;14.814;2023-04-26T14:16:26;4.63;;;2.43;;
6053;SDS011;3055;50.886;14.814;2023-04-26T14:18:54;4.77;;;2.23;;
6053;SDS011;3055;50.886;14.814;2023-04-26T14:21:21;5.43;;;2.70;;
6053;SDS011;3055;50.886;14.814;2023-04-26T14:23:49;6.00;;;2.90;;
6053;SDS011;3055;50.886;14.814;2023-04-26T14:26:17;5.30;;;2.70;;
6053;SDS011;3055;50.886;14.814;2023-04-26T14:28:44;3.50;;;2.47;;
6053;SDS011;3055;50.886;14.814;2023-04-26T14:31:12;3.33;;;1.97;;
6053;SDS011;3055;50.886;14.814;2023-04-26T14:33:41;3.40;;;2.20;;
6053;SDS011;3055;50.886;14.814;2023-04-26T14:36:08;3.17;;;2.57;;
6053;SDS011;3055;50.886;14.814;2023-04-26T14:38:37;4.27;;;2.47;;
6053;SDS011;3055;50.886;14.814;2023-04-26T14:41:08;5.00;;;3.87;;
6053;SDS011;3055;50.886;14.814;2023-04-26T14:43:35;7.23;;;3.67;;
6053;SDS011;3055;50.886;14.814;2023-04-26T14:46:05;3.77;;;2.90;;
6053;SDS011;3055;50.886;14.814;2023-04-26T14:48:35;3.00;;;2.50;;
6053;SDS011;3055;50.886;14.814;2023-04-26T14:51:02;2.80;;;2.53;;
6053;SDS011;3055;50.886;14.814;2023-04-26T14:53:30;4.33;;;2.60;;
6053;SDS011;3055;50.886;14.814;2023-04-26T14:55:58;5.90;;;2.50;;
6053;SDS011;3055;50.886;14.814;2023-04-26T14:58:26;3.37;;;3.03;;
6053;SDS011;3055;50.886;14.814;2023-04-26T15:00:53;3.90;;;2.80;;
6053;SDS011;3055;50.886;14.814;2023-04-26T15:03:20;3.20;;;2.87;;
6053;SDS011;3055;50.886;14.814;2023-04-26T15:05:47;5.43;;;3.13;;
6053;SDS011;3055;50.886;14.814;2023-04-26T15:08:14;5.30;;;3.40;;
6053;SDS011;3055;50.886;14.814;2023-04-26T15:10:42;4.30;;;3.10;;
6053;SDS011;3055;50.886;14.814;2023-04-26T15:13:09;5.87;;;3.07;;
6053;SDS011;3055;50.886;14.814;2023-04-26T15:15:37;6.20;;;3.07;;
6053;SDS011;3055;50.886;14.814;2023-04-26T15:18:04;7.87;;;3.27;;